Xuwen, China
Current Conditions -  °F | °C
As of 2:00 AM on Thursday 29 Jan 2015 (Local Time) from ZJHK Reporting Station
Haze Haze  
Wind Chill: 61°   Ceiling: 3000
Heat Index: 61°   Visibility: 2.5mi
Dew Point: 59°   Wind: 2mph
Humidity: 94%   Direction: 100°E
Pressure: 29.97"   Gusts: NA
Location:  20.33°N, 110.15°E
Report Text: ZJHK 281800Z 10001MPS 4000 BR BKN030 16/15 Q1015 NOSIG
Loading
Personal Weather Stations






























Interactive Weather Map New forecast layout! Learn more

10-Day Weather Forecast

Advertisements
Track Severe Weather on mobile